Time;durP1;ratioP1;P1;durP2;ratioP2;P2;SDS_P1;SDS_P2;PMS_P1;PMS_P2;Temp;Humidity;BMP_temperature;BMP_pressure;BME280_temperature;BME280_humidity;BME280_pressure;Samples;Min_cycle;Max_cycle;Signal;HPM_P1;HPM_P2
2021/12/02 00:01:14;;;;;;;9.50;7.55;;;;;;;19.05;47.91;99833.53;5079571;28;20044;-78
2021/12/02 00:03:42;;;;;;;11.45;7.88;;;;;;;19.04;48.05;99830.03;5059551;28;20052;-78
2021/12/02 00:06:14;;;;;;;8.55;7.10;;;;;;;19.05;47.78;99838.91;5076500;28;20048;-78
2021/12/02 00:08:42;;;;;;;10.10;7.20;;;;;;;19.04;47.83;99840.75;5075391;28;20055;-78
2021/12/02 00:11:10;;;;;;;9.23;7.88;;;;;;;19.04;47.73;99832.69;5076338;28;20049;-78
2021/12/02 00:21:24;;;;;;;9.85;8.02;;;;;;;19.05;48.04;99838.91;5076152;28;20045;-77
2021/12/02 00:24:01;;;;;;;8.93;6.78;;;;;;;19.05;47.79;99839.75;5076345;28;20052;-78
2021/12/02 00:26:30;;;;;;;9.30;7.40;;;;;;;19.04;47.94;99824.66;5076123;28;20063;-77
2021/12/02 00:29:00;;;;;;;8.95;7.38;;;;;;;19.03;47.82;99820.25;5076027;28;20044;-78
2021/12/02 00:31:31;;;;;;;7.93;6.57;;;;;;;19.05;47.88;99830.84;5075939;28;20495;-78
2021/12/02 00:34:01;;;;;;;9.65;7.57;;;;;;;19.05;47.94;99822.81;5076025;28;20040;-78
2021/12/02 00:36:31;;;;;;;9.52;7.45;;;;;;;19.03;47.79;99833.69;5075788;28;20047;-78
2021/12/02 00:39:05;;;;;;;7.18;6.38;;;;;;;19.04;47.73;99824.66;5075585;28;20055;-78
2021/12/02 00:41:32;;;;;;;;;;;;;;;19.04;47.69;99811.25;5076515;28;20049;-78
2021/12/02 00:44:00;;;;;;;11.50;7.57;;;;;;;19.04;47.72;99800.50;5076021;28;19927;-78
2021/12/02 00:46:33;;;;;;;7.55;6.75;;;;;;;19.03;47.68;99804.16;5075745;28;20389;-78
2021/12/02 00:49:03;;;;;;;9.43;7.38;;;;;;;19.03;47.60;99805.00;5075371;28;20044;-78
2021/12/02 00:51:32;;;;;;;8.40;6.65;;;;;;;19.03;47.51;99788.06;5075281;28;20051;-78
2021/12/02 00:54:03;;;;;;;6.80;6.10;;;;;;;19.03;47.63;99790.75;5075402;28;20048;-78
2021/12/02 00:56:32;;;;;;;7.97;6.72;;;;;;;19.03;47.49;99783.56;5074426;28;20048;-78
2021/12/02 00:59:00;;;;;;;9.32;6.60;;;;;;;19.02;47.59;99779.19;5073984;28;20055;-78
2021/12/02 01:01:34;;;;;;;10.68;7.28;;;;;;;19.04;47.38;99771.00;5075041;28;20464;-78
2021/12/02 01:04:10;;;;;;;11.10;7.40;;;;;;;19.03;47.40;99769.28;5075331;28;20051;-78
2021/12/02 01:06:39;;;;;;;8.45;6.75;;;;;;;19.03;47.16;99766.63;5075170;28;20111;-78
2021/12/02 01:09:09;;;;;;;8.52;6.47;;;;;;;19.03;47.58;99771.97;5075024;28;20049;-78
2021/12/02 01:11:37;;;;;;;7.25;6.13;;;;;;;19.04;47.51;99779.06;5074013;28;20151;-78
2021/12/02 01:14:06;;;;;;;7.03;6.32;;;;;;;19.03;47.31;99780.03;5075220;28;20045;-78
2021/12/02 01:16:35;;;;;;;7.10;6.40;;;;;;;19.04;47.38;99784.41;5073960;28;20049;-78
2021/12/02 01:19:07;;;;;;;8.38;7.57;;;;;;;19.03;47.39;99783.56;5073960;28;20051;-78
2021/12/02 01:21:38;;;;;;;7.45;6.45;;;;;;;19.03;47.35;99796.13;5074905;28;20048;-78
2021/12/02 01:24:09;;;;;;;7.43;6.65;;;;;;;19.03;47.49;99802.31;5074996;28;20047;-78
2021/12/02 01:26:37;;;;;;;8.68;6.70;;;;;;;19.03;47.28;99796.13;5074817;28;20404;-78
2021/12/02 01:29:04;;;;;;;7.53;6.68;;;;;;;19.03;47.05;99793.44;5074717;28;20135;-78
2021/12/02 01:31:38;;;;;;;8.20;6.00;;;;;;;19.03;47.28;99790.75;5073847;28;20052;-78
2021/12/02 01:34:08;;;;;;;10.95;6.35;;;;;;;19.04;47.26;99784.41;5074489;28;20044;-78
2021/12/02 01:36:39;;;;;;;6.97;6.28;;;;;;;19.03;47.38;99772.81;5074755;28;20499;-78
2021/12/02 01:39:07;;;;;;;8.05;6.63;;;;;;;19.04;47.23;99773.69;5074820;28;20380;-78
2021/12/02 01:41:50;;;;;;;7.90;7.03;;;;;;;19.03;47.20;99777.34;5073295;28;20523;-78
2021/12/02 01:44:20;;;;;;;6.63;5.93;;;;;;;19.03;47.18;99775.50;5074170;28;20044;-78
2021/12/02 01:46:51;;;;;;;7.00;6.10;;;;;;;19.05;47.18;99771.84;5073009;28;20496;-78
2021/12/02 01:49:22;;;;;;;8.73;6.00;;;;;;;19.03;47.14;99770.13;5073939;28;20047;-78
2021/12/02 01:51:51;;;;;;;7.05;6.30;;;;;;;19.03;47.17;99753.19;5074019;28;20496;-78
2021/12/02 01:54:21;;;;;;;8.55;5.93;;;;;;;19.03;47.19;99747.84;5073028;28;20067;-77
2021/12/02 01:56:53;;;;;;;7.60;6.75;;;;;;;19.02;47.37;99749.69;5073920;28;20052;-77
2021/12/02 01:59:28;;;;;;;6.50;5.50;;;;;;;19.04;47.07;99757.59;5073878;28;20052;-77
2021/12/02 02:01:57;;;;;;;7.75;6.07;;;;;;;19.04;47.15;99768.31;5073980;28;20281;-78
2021/12/02 02:04:25;;;;;;;7.75;5.68;;;;;;;19.03;47.35;99769.28;5073916;28;20365;-78
2021/12/02 02:06:58;;;;;;;8.80;5.88;;;;;;;19.03;47.30;99767.47;5073684;28;20396;-78
2021/12/02 02:09:28;;;;;;;11.17;6.17;;;;;;;19.04;47.20;99765.66;5074087;28;20045;-78
2021/12/02 02:11:56;;;;;;;8.18;6.60;;;;;;;19.03;47.20;99766.63;5074103;28;20269;-78
2021/12/02 02:14:26;;;;;;;7.15;5.80;;;;;;;19.02;47.32;99760.41;5072696;28;20036;-78
2021/12/02 02:16:55;;;;;;;10.32;6.53;;;;;;;19.04;47.28;99752.22;5072961;28;20055;-78
2021/12/02 02:19:23;;;;;;;7.68;5.60;;;;;;;19.03;47.18;99751.34;5073925;28;20376;-78
2021/12/02 02:21:50;;;;;;;8.65;6.03;;;;;;;19.03;47.22;99737.09;5074079;28;20049;-78
2021/12/02 02:24:18;;;;;;;7.15;5.55;;;;;;;19.03;47.32;99743.31;5073931;28;20056;-78
2021/12/02 02:26:46;;;;;;;9.23;6.20;;;;;;;19.03;47.18;99756.72;5072315;28;20059;-78
2021/12/02 02:29:14;;;;;;;7.40;6.25;;;;;;;19.03;47.08;99754.03;5073922;28;20355;-78
2021/12/02 02:31:43;;;;;;;8.05;5.45;;;;;;;19.03;47.09;99756.72;5073918;28;20055;-78
2021/12/02 02:34:13;;;;;;;9.20;6.22;;;;;;;19.03;47.18;99758.56;5073850;28;20048;-78
2021/12/02 02:36:55;;;;;;;6.93;5.97;;;;;;;19.03;47.07;99751.34;5073484;28;20044;-79
2021/12/02 02:39:25;;;;;;;8.32;5.85;;;;;;;19.03;47.11;99745.16;5072735;28;20349;-79
2021/12/02 02:42:00;;;;;;;8.38;5.53;;;;;;;19.02;47.25;99748.84;5073094;28;20051;-79
2021/12/02 02:44:30;;;;;;;7.15;5.65;;;;;;;19.02;47.15;99743.47;5072554;28;20049;-80
2021/12/02 02:46:57;;;;;;;7.65;5.88;;;;;;;19.02;47.20;99728.22;5073502;28;20040;-79
2021/12/02 02:49:25;;;;;;;7.82;5.53;;;;;;;19.03;47.14;99718.34;5071904;28;20056;-78
2021/12/02 02:51:53;;;;;;;8.35;5.47;;;;;;;19.03;47.18;99718.34;5073277;28;20040;-78
2021/12/02 02:54:22;;;;;;;7.85;5.88;;;;;;;19.01;47.17;99721.19;5072412;28;20388;-78
2021/12/02 02:57:00;;;;;;;7.18;6.03;;;;;;;19.03;47.28;99735.25;5072412;28;20052;-78
2021/12/02 02:59:38;;;;;;;7.03;5.57;;;;;;;19.02;47.20;99722.88;5073349;28;20045;-78
2021/12/02 03:04:49;;;;;;;6.32;5.38;;;;;;;19.02;47.06;99717.50;5073457;28;20057;-78
2021/12/02 03:09:53;;;;;;;9.40;5.63;;;;;;;19.03;47.04;99712.97;5072737;28;20049;-78
2021/12/02 03:12:27;;;;;;;;;;;;;;;19.01;47.15;99710.47;5073880;28;20056;-79
2021/12/02 03:17:32;;;;;;;6.78;5.05;;;;;;;19.01;47.49;99717.66;5073429;28;20049;-78
2021/12/02 03:20:00;;;;;;;7.13;5.47;;;;;;;19.02;47.49;99727.38;5073570;28;20053;-78
2021/12/02 03:22:28;;;;;;;6.15;5.55;;;;;;;19.01;47.16;99725.72;5073531;28;20385;-78
2021/12/02 03:24:55;;;;;;;6.70;5.53;;;;;;;19.01;47.38;99731.06;5073114;28;20388;-78
2021/12/02 03:27:24;;;;;;;7.63;5.55;;;;;;;19.01;47.30;99721.19;5073251;28;20058;-79
2021/12/02 03:29:51;;;;;;;7.22;5.55;;;;;;;19.00;47.24;99705.25;5073398;28;20049;-79
2021/12/02 03:32:19;;;;;;;7.82;6.05;;;;;;;19.00;47.20;99707.94;5073291;28;20067;-79
2021/12/02 03:34:46;;;;;;;6.60;5.68;;;;;;;19.01;47.09;99710.47;5072647;28;20044;-79
2021/12/02 03:37:14;;;;;;;6.03;5.10;;;;;;;19.00;47.13;99706.09;5072814;28;20048;-79
2021/12/02 03:39:42;;;;;;;8.00;5.75;;;;;;;19.01;47.12;99717.66;5075609;28;20071;-79
2021/12/02 03:42:10;;;;;;;6.32;5.60;;;;;;;19.01;47.19;99720.34;5076554;28;20048;-79
2021/12/02 03:44:37;;;;;;;5.32;4.80;;;;;;;19.01;47.01;99714.97;5076459;28;20075;-79
2021/12/02 03:47:05;;;;;;;8.07;5.53;;;;;;;19.01;47.19;99712.31;5076647;28;20044;-79
2021/12/02 03:49:32;;;;;;;7.32;4.95;;;;;;;19.01;47.16;99704.25;5076651;28;20045;-79
2021/12/02 03:52:00;;;;;;;5.57;4.95;;;;;;;19.00;47.23;99692.69;5075620;28;20044;-79
2021/12/02 03:54:27;;;;;;;6.10;5.13;;;;;;;19.01;46.98;99688.16;5076573;28;20044;-80
2021/12/02 03:56:54;;;;;;;6.75;4.93;;;;;;;19.01;47.04;99694.38;5076668;28;20048;-80
2021/12/02 03:59:22;;;;;;;6.32;5.00;;;;;;;19.01;46.89;99698.88;5076567;28;20048;-79
2021/12/02 04:01:49;;;;;;;6.15;4.95;;;;;;;19.00;46.97;99695.38;5076239;28;20052;-79
2021/12/02 04:04:17;;;;;;;6.60;4.80;;;;;;;19.00;46.90;99692.69;5076334;28;20055;-79
2021/12/02 04:06:44;;;;;;;6.53;4.88;;;;;;;19.00;46.89;99695.38;5076373;28;20051;-79
2021/12/02 04:09:16;;;;;;;5.63;4.40;;;;;;;19.00;47.00;99694.53;5074939;28;20047;-80
2021/12/02 04:16:40;;;;;;;5.80;4.43;;;;;;;19.01;46.89;99694.38;5076280;28;20044;-78
2021/12/02 04:19:10;;;;;;;6.75;5.15;;;;;;;19.00;46.71;99702.56;5076306;28;20040;-78
2021/12/02 04:21:39;;;;;;;6.32;4.80;;;;;;;19.00;46.97;99689.16;5076210;28;20052;-78
2021/12/02 04:24:07;;;;;;;6.00;4.88;;;;;;;19.00;46.82;99687.31;5074627;28;20428;-78
2021/12/02 04:26:34;;;;;;;6.57;4.53;;;;;;;19.01;46.93;99672.91;5076219;28;20044;-79
2021/12/02 04:29:02;;;;;;;7.05;5.30;;;;;;;19.01;46.89;99680.13;5074743;28;20048;-79
2021/12/02 04:31:30;;;;;;;8.15;5.15;;;;;;;19.00;46.83;99683.81;5075315;28;20380;-79
2021/12/02 04:33:57;;;;;;;5.93;4.28;;;;;;;19.01;46.83;99680.13;5076172;28;20048;-79
2021/12/02 04:36:25;;;;;;;5.32;4.32;;;;;;;19.00;46.87;99691.84;5074995;28;20040;-79
2021/12/02 04:38:52;;;;;;;5.53;4.90;;;;;;;19.00;46.89;99681.13;5075621;28;20409;-78
2021/12/02 04:41:19;;;;;;;7.75;4.78;;;;;;;19.00;46.85;99684.66;5075521;28;20045;-78
2021/12/02 04:43:47;;;;;;;7.03;4.60;;;;;;;19.00;46.87;99689.16;5075557;28;20123;-78
2021/12/02 05:12:46;;;;;;;6.78;4.65;;;;;;;19.04;46.73;99674.44;5111710;27;20377;-77
2021/12/02 05:15:14;;;;;;;10.05;5.00;;;;;;;19.05;46.54;99668.06;5111506;28;20039;-77
2021/12/02 05:17:41;;;;;;;5.53;4.68;;;;;;;19.05;46.66;99670.75;5110719;28;20048;-77
2021/12/02 05:20:09;;;;;;;6.15;4.72;;;;;;;19.03;46.42;99652.13;5111486;28;20406;-77
2021/12/02 05:22:37;;;;;;;6.70;5.47;;;;;;;19.03;46.65;99649.44;5093077;28;20052;-77
2021/12/02 05:25:05;;;;;;;8.25;5.28;;;;;;;19.03;46.62;99653.97;5111224;28;20505;-77
2021/12/02 05:27:32;;;;;;;5.18;4.68;;;;;;;19.02;46.54;99655.81;5110260;28;20475;-77
2021/12/02 05:30:00;;;;;;;6.57;5.05;;;;;;;19.02;46.36;99647.75;5111165;28;20039;-77
2021/12/02 05:32:30;;;;;;;5.25;4.20;;;;;;;19.00;46.75;99641.72;5110044;28;20052;-77
2021/12/02 05:34:58;;;;;;;5.78;4.75;;;;;;;19.02;46.68;99649.59;5111515;28;20047;-78
2021/12/02 05:37:26;;;;;;;4.70;4.20;;;;;;;19.00;46.57;99657.81;5111055;28;20043;-79
2021/12/02 05:39:53;;;;;;;5.90;5.10;;;;;;;19.00;46.50;99654.31;5109744;28;20054;-79
2021/12/02 05:42:21;;;;;;;5.55;4.63;;;;;;;18.99;46.60;99658.78;5110891;28;20040;-78
2021/12/02 05:44:53;;;;;;;7.07;5.40;;;;;;;18.99;46.66;99655.28;5111104;28;20055;-78
2021/12/02 05:47:21;;;;;;;6.07;4.65;;;;;;;18.98;46.65;99649.06;5111089;28;20055;-78
2021/12/02 05:49:48;;;;;;;4.72;4.15;;;;;;;18.99;46.57;99652.59;5111024;28;20052;-78
2021/12/02 05:52:20;;;;;;;6.47;4.82;;;;;;;18.98;46.79;99661.66;5110989;28;20040;-78
2021/12/02 05:54:47;;;;;;;5.82;4.53;;;;;;;18.97;46.46;99657.28;5109384;28;20379;-77
2021/12/02 05:57:15;;;;;;;6.22;4.93;;;;;;;18.97;46.60;99651.94;5111032;28;20498;-77
2021/12/02 05:59:42;;;;;;;5.72;4.55;;;;;;;18.97;46.56;99651.94;5110763;28;20048;-76
2021/12/02 06:02:10;;;;;;;5.57;4.68;;;;;;;18.97;46.47;99650.09;5110720;28;20039;-77
2021/12/02 06:04:39;;;;;;;7.13;4.88;;;;;;;18.97;46.61;99652.75;5109623;28;20055;-77
2021/12/02 06:07:06;;;;;;;5.13;4.22;;;;;;;18.97;46.46;99644.72;5110509;28;20044;-77
2021/12/02 06:09:34;;;;;;;7.47;4.82;;;;;;;18.96;46.75;99640.38;5109513;28;20047;-77
2021/12/02 06:12:02;;;;;;;5.72;4.75;;;;;;;18.97;46.66;99638.53;5106587;28;20493;-76
2021/12/02 06:14:29;;;;;;;7.43;4.60;;;;;;;18.96;46.61;99631.47;5096718;28;20048;-77
2021/12/02 06:16:56;;;;;;;8.27;4.57;;;;;;;18.97;46.77;99633.16;5096865;28;20364;-77
2021/12/02 06:19:24;;;;;;;6.45;5.32;;;;;;;18.95;46.85;99617.19;5095643;28;20085;-76
2021/12/02 06:21:51;;;;;;;5.32;4.40;;;;;;;18.96;46.89;99629.63;5095705;28;20427;-77
2021/12/02 06:24:20;;;;;;;8.00;4.43;;;;;;;18.96;46.81;99636.84;5096879;28;20040;-78
2021/12/02 06:26:47;;;;;;;6.45;4.43;;;;;;;18.96;46.80;99629.63;5095725;28;20059;-77
2021/12/02 06:29:15;;;;;;;6.18;4.60;;;;;;;18.96;46.85;99620.75;5096461;28;20048;-77
2021/12/02 06:31:42;;;;;;;6.82;4.93;;;;;;;18.96;46.94;99626.94;5095074;28;20040;-80
2021/12/02 06:34:09;;;;;;;6.05;5.00;;;;;;;18.96;47.04;99626.13;5096916;28;20048;-79
2021/12/02 06:36:37;;;;;;;7.40;4.88;;;;;;;18.96;46.93;99628.78;5096343;28;20047;-79
2021/12/02 06:39:05;;;;;;;7.35;4.45;;;;;;;18.96;46.82;99631.47;5096590;28;20044;-79
2021/12/02 06:41:34;;;;;;;5.53;4.97;;;;;;;18.96;46.94;99626.94;5096394;28;20047;-79
2021/12/02 06:56:32;;;;;;;5.22;4.10;;;;;;;19.00;46.71;99633.69;5111320;27;20376;-79
2021/12/02 06:58:59;;;;;;;6.47;4.45;;;;;;;19.00;46.80;99632.84;5111654;28;20378;-79
2021/12/02 07:01:27;;;;;;;8.85;4.68;;;;;;;19.00;46.57;99630.16;5109781;28;20047;-80
2021/12/02 07:03:54;;;;;;;4.72;4.07;;;;;;;18.99;46.71;99642.69;5111043;28;20379;-79
2021/12/02 07:06:22;;;;;;;5.93;4.35;;;;;;;18.98;46.80;99646.38;5109699;28;20052;-79
2021/12/02 07:08:49;;;;;;;6.32;4.28;;;;;;;18.99;46.57;99650.75;5111586;28;20044;-79
2021/12/02 07:11:16;;;;;;;6.82;4.45;;;;;;;18.98;46.56;99650.91;5110949;28;20521;-79
2021/12/02 07:13:46;;;;;;;6.35;4.75;;;;;;;18.97;46.57;99646.56;5111314;28;20044;-79
2021/12/02 07:16:14;;;;;;;8.45;4.88;;;;;;;18.97;46.55;99638.53;5110188;28;20047;-79
2021/12/02 07:18:47;;;;;;;5.50;4.30;;;;;;;18.96;46.42;99645.72;5109344;28;20043;-79
2021/12/02 07:21:14;;;;;;;;;;;;;;;18.96;46.34;99644.88;5111530;28;20047;-79
2021/12/02 07:23:41;;;;;;;6.72;4.55;;;;;;;18.94;46.43;99645.03;5110712;28;19926;-78
2021/12/02 07:26:09;;;;;;;6.30;4.13;;;;;;;18.95;46.31;99643.19;5109258;28;20039;-78
2021/12/02 07:28:36;;;;;;;6.63;4.53;;;;;;;18.94;46.37;99645.03;5109186;28;20055;-79
2021/12/02 07:31:06;;;;;;;7.18;4.90;;;;;;;18.93;46.50;99648.72;5109245;28;20059;-78
2021/12/02 07:33:37;;;;;;;4.82;4.05;;;;;;;18.94;46.25;99654.91;5110770;28;20044;-78
2021/12/02 07:36:06;;;;;;;5.82;4.85;;;;;;;18.93;46.14;99655.94;5109697;28;20394;-79
2021/12/02 07:38:37;;;;;;;5.80;4.38;;;;;;;18.93;46.28;99661.28;5109914;28;20040;-78
2021/12/02 07:41:05;;;;;;;5.85;4.30;;;;;;;18.92;46.24;99660.44;5110510;28;20410;-78
2021/12/02 07:43:35;;;;;;;5.43;4.10;;;;;;;18.91;46.05;99645.34;5110269;28;20495;-79
2021/12/02 07:46:03;;;;;;;5.20;4.63;;;;;;;18.91;46.19;99625.72;5110708;28;20036;-79
2021/12/02 07:48:31;;;;;;;5.38;4.53;;;;;;;18.91;46.31;99641.81;5110229;28;20044;-78
2021/12/02 07:51:01;;;;;;;5.78;4.72;;;;;;;18.91;46.16;99645.34;5110245;28;20054;-79
2021/12/02 07:53:29;;;;;;;5.40;4.38;;;;;;;18.91;46.16;99639.13;5110393;28;20043;-79
2021/12/02 07:55:57;;;;;;;6.25;5.00;;;;;;;18.90;46.06;99640.13;5105191;28;20059;-79
2021/12/02 07:58:24;;;;;;;6.80;4.25;;;;;;;18.91;46.14;99634.59;5096736;28;20514;-79
2021/12/02 08:00:58;;;;;;;6.25;4.22;;;;;;;18.89;45.90;99625.91;5096460;28;20036;-79
2021/12/02 08:03:27;;;;;;;6.13;4.70;;;;;;;18.90;46.08;99632.94;5097033;28;20067;-79
2021/12/02 08:05:54;;;;;;;6.30;4.70;;;;;;;18.89;46.07;99625.06;5096847;28;20494;-80
2021/12/02 08:08:21;;;;;;;5.28;4.10;;;;;;;18.89;46.13;99622.38;5096297;28;20446;-80
2021/12/02 08:10:51;;;;;;;5.50;4.30;;;;;;;18.88;45.88;99629.59;5096294;28;20043;-80
2021/12/02 08:13:25;;;;;;;5.40;4.55;;;;;;;18.88;45.99;99632.25;5096119;28;20044;-79
2021/12/02 08:15:52;;;;;;;7.03;4.88;;;;;;;18.88;45.84;99634.94;5096493;28;20399;-79
2021/12/02 08:18:20;;;;;;;5.03;4.35;;;;;;;18.88;45.95;99631.41;5096191;28;20044;-79
2021/12/02 08:20:50;;;;;;;5.45;4.53;;;;;;;18.88;46.23;99626.03;5096074;28;20044;-80
2021/12/02 08:23:18;;;;;;;4.43;3.92;;;;;;;18.88;45.98;99618.00;5095981;28;20044;-79
2021/12/02 08:25:46;;;;;;;4.30;3.72;;;;;;;18.87;45.94;99625.19;5095518;28;20040;-79
2021/12/02 08:28:15;;;;;;;5.63;4.43;;;;;;;18.87;45.87;99621.69;5095838;28;20487;-80
2021/12/02 08:30:42;;;;;;;4.82;4.30;;;;;;;18.87;46.08;99622.50;5095819;28;20040;-79
2021/12/02 08:33:12;;;;;;;5.35;4.40;;;;;;;18.87;46.06;99621.69;5095747;28;20047;-79
2021/12/02 08:35:41;;;;;;;4.63;3.83;;;;;;;18.86;45.82;99628.03;5095815;28;20045;-79
2021/12/02 08:38:10;;;;;;;8.88;7.40;;;;;;;18.82;44.06;99629.38;5094720;28;20044;-78
2021/12/02 08:40:40;;;;;;;16.23;14.63;;;;;;;18.24;43.62;99636.94;5095539;28;20485;-78
2021/12/02 08:43:11;;;;;;;18.67;16.73;;;;;;;17.62;44.24;99643.94;5095709;28;20044;-78
2021/12/02 08:45:41;;;;;;;21.15;18.73;;;;;;;17.12;44.66;99638.97;5096053;28;20050;-78
2021/12/02 08:48:10;;;;;;;18.60;16.80;;;;;;;16.82;45.95;99636.53;5095576;28;20039;-79
2021/12/02 08:50:38;;;;;;;18.88;16.65;;;;;;;16.60;46.70;99634.97;5094173;28;20048;-79
2021/12/02 09:05:46;;;;;;;12.30;9.50;;;;;;;17.49;46.20;99641.59;5131842;27;20368;-79
2021/12/02 09:08:16;;;;;;;11.13;9.65;;;;;;;17.64;45.94;99636.59;5131919;28;20054;-79
2021/12/02 09:10:43;;;;;;;10.27;8.65;;;;;;;17.77;45.68;99633.59;5132065;28;20051;-79
2021/12/02 09:13:11;;;;;;;9.55;8.57;;;;;;;17.87;45.33;99623.69;5131562;28;20046;-79
2021/12/02 09:15:39;;;;;;;10.77;8.48;;;;;;;17.96;44.98;99629.97;5132136;28;20046;-79
2021/12/02 09:18:06;;;;;;;8.27;7.38;;;;;;;18.01;44.92;99625.81;5131590;28;20044;-79
2021/12/02 09:20:35;;;;;;;8.57;7.25;;;;;;;18.07;45.13;99628.88;5131800;28;20497;-79
2021/12/02 09:23:02;;;;;;;8.05;6.60;;;;;;;18.11;45.11;99625.75;5131362;28;20050;-81
2021/12/02 09:25:30;;;;;;;8.48;6.70;;;;;;;18.15;44.96;99626.28;5131357;28;20066;-79
2021/12/02 09:27:57;;;;;;;8.75;6.68;;;;;;;18.19;45.00;99625.84;5131390;28;20057;-80
2021/12/02 09:30:25;;;;;;;6.72;5.80;;;;;;;18.22;44.85;99622.00;5131329;28;20050;-79
2021/12/02 09:32:53;;;;;;;6.63;6.00;;;;;;;18.24;45.04;99620.84;5131517;28;20044;-79
2021/12/02 09:35:21;;;;;;;6.20;5.60;;;;;;;18.26;44.95;99608.13;5131062;28;20040;-78
2021/12/02 09:37:49;;;;;;;6.82;4.55;;;;;;;18.28;44.98;99611.50;5095371;28;20058;-78
2021/12/02 09:40:17;;;;;;;5.68;5.03;;;;;;;18.31;44.89;99604.16;5130808;28;20039;-78
2021/12/02 09:42:45;;;;;;;6.75;5.38;;;;;;;18.32;45.00;99587.09;5130755;28;20047;-78
2021/12/02 09:45:15;;;;;;;5.65;4.65;;;;;;;18.33;44.90;99586.94;5131830;28;20595;-79
2021/12/02 09:47:45;;;;;;;5.50;4.93;;;;;;;18.34;44.85;99583.25;5131791;28;20043;-78
2021/12/02 09:50:20;;;;;;;6.38;4.97;;;;;;;18.36;44.88;99569.72;5131115;28;20047;-79
2021/12/02 09:52:48;;;;;;;6.40;4.90;;;;;;;18.37;44.82;99566.03;5131352;28;20043;-79
2021/12/02 09:55:20;;;;;;;6.45;4.88;;;;;;;18.37;44.88;99566.88;5131023;28;20043;-79
2021/12/02 09:57:57;;;;;;;5.20;4.55;;;;;;;18.39;44.93;99569.38;5131666;28;20054;-79
2021/12/02 10:00:41;;;;;;;6.70;4.60;;;;;;;18.39;45.04;99570.25;5130166;28;20039;-79
2021/12/02 10:06:07;;;;;;;4.78;4.30;;;;;;;18.40;44.89;99563.88;5058856;28;20203;-79
2021/12/02 10:08:47;;;;;;;4.95;3.85;;;;;;;18.41;44.89;99557.53;5055020;28;20064;-79
2021/12/02 10:11:28;;;;;;;5.13;3.70;;;;;;;18.42;44.85;99553.00;5037282;28;20060;-79
2021/12/02 10:14:34;;;;;;;5.20;3.92;;;;;;;18.43;44.60;99549.31;5054660;28;20053;-79
2021/12/02 10:23:01;;;;;;;4.82;4.38;;;;;;;18.44;44.84;99543.81;5053938;28;20049;-79
2021/12/02 10:25:30;;;;;;;5.22;3.60;;;;;;;18.45;44.93;99540.13;5054420;28;20045;-79
2021/12/02 10:28:10;;;;;;;4.70;3.88;;;;;;;18.46;44.92;99538.28;5053906;28;20496;-79
2021/12/02 10:30:49;;;;;;;4.95;3.65;;;;;;;18.45;44.87;99531.25;5037877;28;20538;-79
2021/12/02 10:33:36;;;;;;;5.07;4.28;;;;;;;18.46;44.82;99519.53;5054339;28;20531;-79
2021/12/02 10:36:05;;;;;;;5.45;4.88;;;;;;;18.47;44.94;99513.16;5053964;28;20057;-79
2021/12/02 10:38:41;;;;;;;5.45;4.05;;;;;;;18.47;44.81;99507.81;5053642;28;20045;-80
2021/12/02 10:41:24;;;;;;;4.35;3.95;;;;;;;18.46;44.86;99509.66;5053844;28;20052;-79
2021/12/02 10:44:04;;;;;;;4.78;4.07;;;;;;;18.45;44.86;99499.94;5102040;28;20060;-80
2021/12/02 10:46:35;;;;;;;3.88;3.42;;;;;;;18.47;44.97;99497.09;5116843;28;20492;-80
2021/12/02 10:49:05;;;;;;;4.85;3.88;;;;;;;18.46;44.87;99490.06;5114740;28;20051;-79
2021/12/02 10:51:39;;;;;;;5.32;4.07;;;;;;;18.47;44.90;99489.03;5116170;28;20043;-79
2021/12/02 10:54:14;;;;;;;5.28;3.92;;;;;;;18.47;44.91;99489.03;5114327;28;20406;-79
2021/12/02 10:56:46;;;;;;;5.35;4.15;;;;;;;18.46;44.73;99477.50;5115360;28;20046;-79
2021/12/02 10:59:32;;;;;;;3.90;3.50;;;;;;;18.48;44.93;99482.72;5116560;28;20040;-79
2021/12/02 11:02:15;;;;;;;3.80;3.38;;;;;;;18.47;45.00;99481.88;5116478;28;20351;-79
2021/12/02 11:04:45;;;;;;;4.68;4.18;;;;;;;18.48;44.82;99482.72;5114701;28;20051;-80
2021/12/02 11:07:27;;;;;;;4.63;4.10;;;;;;;18.47;44.92;99470.28;5116591;28;20070;-80
2021/12/02 11:09:56;;;;;;;4.35;3.88;;;;;;;18.48;44.92;99480.03;5116327;28;20076;-80
2021/12/02 11:12:32;;;;;;;4.45;3.63;;;;;;;18.47;44.83;99476.50;5114528;28;20044;-80
2021/12/02 11:15:03;;;;;;;4.50;3.88;;;;;;;18.48;44.95;99472.81;5114246;28;20074;-80
2021/12/02 11:17:33;;;;;;;5.05;3.92;;;;;;;18.47;44.90;99471.16;5115114;28;20066;-80
2021/12/02 11:20:05;;;;;;;4.50;4.10;;;;;;;18.48;45.00;99466.63;5115745;28;20048;-80
2021/12/02 11:22:33;;;;;;;4.75;3.75;;;;;;;18.47;45.03;99470.28;5116158;28;20398;-80
2021/12/02 11:25:03;;;;;;;4.57;3.88;;;;;;;18.49;44.85;99465.63;5097248;28;20047;-80
2021/12/02 11:27:38;;;;;;;4.78;4.00;;;;;;;18.48;44.90;99463.94;5115387;28;20048;-80
2021/12/02 11:30:32;;;;;;;5.07;4.00;;;;;;;18.49;44.90;99462.94;5115894;28;20058;-80
2021/12/02 11:33:10;;;;;;;4.40;4.00;;;;;;;18.48;44.82;99456.75;5115923;28;20113;-79
2021/12/02 11:35:43;;;;;;;4.80;4.05;;;;;;;18.49;44.91;99449.53;5115772;28;20050;-80
2021/12/02 11:38:28;;;;;;;5.13;4.63;;;;;;;18.49;45.03;99446.88;5113832;28;20410;-80
2021/12/02 11:41:02;;;;;;;6.03;4.20;;;;;;;18.49;44.75;99449.53;5115352;28;20050;-80
2021/12/02 11:43:34;;;;;;;4.93;4.43;;;;;;;18.49;44.83;99438.81;5115396;28;20051;-79
2021/12/02 11:46:04;;;;;;;5.00;4.47;;;;;;;18.48;44.88;99426.44;5115873;28;20067;-79
2021/12/02 11:48:34;;;;;;;5.15;4.60;;;;;;;18.49;44.85;99420.06;5115416;28;20036;-80
2021/12/02 11:51:06;;;;;;;4.47;4.07;;;;;;;18.48;44.84;99421.91;5115790;28;20055;-80
2021/12/02 11:53:34;;;;;;;5.18;4.68;;;;;;;18.51;44.80;99426.09;5113208;28;20058;-79
2021/12/02 11:56:06;;;;;;;4.25;3.85;;;;;;;18.49;44.89;99420.06;5115271;28;20500;-80
2021/12/02 11:58:33;;;;;;;4.78;4.22;;;;;;;18.50;44.78;99416.38;5114440;28;20363;-80
2021/12/02 12:01:01;;;;;;;4.30;3.90;;;;;;;18.50;45.15;99413.69;5114729;28;20478;-80
2021/12/02 12:03:32;;;;;;;4.45;4.05;;;;;;;18.51;44.90;99401.97;5113536;28;20043;-80
2021/12/02 12:06:02;;;;;;;5.43;4.15;;;;;;;18.50;45.01;99392.25;5114951;28;20055;-80
2021/12/02 12:08:34;;;;;;;4.70;4.30;;;;;;;18.50;44.96;99379.69;5113733;28;20043;-79
2021/12/02 12:11:34;;;;;;;5.30;4.28;;;;;;;18.50;44.93;99382.38;5115140;28;20050;-80
2021/12/02 12:14:08;;;;;;;4.70;4.30;;;;;;;18.50;44.87;99376.19;5114504;28;20051;-80
2021/12/02 12:16:37;;;;;;;5.53;4.72;;;;;;;18.50;44.82;99374.34;5115196;28;20067;-79
2021/12/02 12:19:28;;;;;;;4.90;4.22;;;;;;;18.50;44.85;99374.34;5115257;28;20463;-80
2021/12/02 12:22:04;;;;;;;5.63;4.57;;;;;;;18.50;44.89;99374.34;5114383;28;20039;-79
2021/12/02 12:24:46;;;;;;;5.22;4.72;;;;;;;18.51;44.83;99377.84;5115212;28;20035;-80
2021/12/02 12:27:22;;;;;;;4.68;4.20;;;;;;;18.50;44.91;99374.34;5113457;28;20043;-80
2021/12/02 12:30:11;;;;;;;5.13;4.57;;;;;;;18.51;44.93;99369.81;5112935;28;20047;-79
2021/12/02 12:38:30;;;;;;;5.35;4.85;;;;;;;18.50;45.12;99373.50;4976323;28;20058;-81
2021/12/02 12:41:01;;;;;;;6.63;5.22;;;;;;;18.49;45.49;99371.81;4992621;28;20054;-79
2021/12/02 12:43:47;;;;;;;6.60;4.43;;;;;;;18.49;45.69;99363.78;4992334;28;20158;-79
2021/12/02 12:46:19;;;;;;;6.03;5.43;;;;;;;18.49;45.51;99371.81;4976318;28;20046;-80
2021/12/02 12:48:47;;;;;;;5.43;4.90;;;;;;;18.49;45.70;99369.97;4992491;28;20517;-80
2021/12/02 12:51:22;;;;;;;7.32;5.57;;;;;;;18.50;45.70;99352.06;4993008;28;20061;-80
2021/12/02 12:53:53;;;;;;;5.35;4.85;;;;;;;18.50;45.63;99358.25;4992679;28;20050;-80
2021/12/02 12:56:46;;;;;;;8.23;5.07;;;;;;;18.49;45.67;99351.22;4992228;28;20244;-79
2021/12/02 12:59:15;;;;;;;5.95;5.38;;;;;;;18.50;45.58;99349.38;4992489;28;20054;-80
2021/12/02 13:02:02;;;;;;;5.45;4.75;;;;;;;18.50;45.69;99349.38;4960083;28;20054;-80
2021/12/02 13:04:52;;;;;;;6.07;5.47;;;;;;;18.50;45.68;99344.84;4992091;28;20058;-79
2021/12/02 13:07:40;;;;;;;6.65;5.15;;;;;;;18.49;45.67;99339.66;4991725;28;20069;-80
2021/12/02 13:10:15;;;;;;;8.15;5.07;;;;;;;18.50;45.82;99339.50;5040084;28;20079;-80
2021/12/02 13:12:42;;;;;;;7.30;4.95;;;;;;;18.51;45.67;99341.19;5055133;28;20052;-80
2021/12/02 13:15:10;;;;;;;10.20;5.32;;;;;;;18.51;45.91;99324.25;5086021;28;20048;-80
2021/12/02 13:17:44;;;;;;;11.40;5.13;;;;;;;18.51;46.18;99334.97;5114163;28;20486;-80